Time;durP1;ratioP1;P1;durP2;ratioP2;P2;SDS_P1;SDS_P2;PMS_P1;PMS_P2;Temp;Humidity;BMP_temperature;BMP_pressure;BME280_temperature;BME280_humidity;BME280_pressure;Samples;Min_cycle;Max_cycle;Signal;HPM_P1;HPM_P2
2021/10/30 00:00:01;;;;;;;26.08;16.50;;;24.90;37.00;;;;;;6137035;28;83098;-67
2021/10/30 00:03:02;;;;;;;27.77;16.67;;;24.90;36.70;;;;;;6142264;28;83197;-68
2021/10/30 00:06:02;;;;;;;29.70;16.95;;;25.00;36.90;;;;;;6147073;28;83006;-67
2021/10/30 00:09:03;;;;;;;27.55;16.17;;;25.00;36.70;;;;;;6144733;28;83946;-67
2021/10/30 00:12:03;;;;;;;26.92;16.13;;;25.00;37.50;;;;;;6152829;28;83538;-67
2021/10/30 00:15:04;;;;;;;28.63;16.60;;;25.00;36.90;;;;;;6139760;28;85200;-67
2021/10/30 00:18:05;;;;;;;27.48;16.00;;;25.00;36.70;;;;;;6150899;28;83013;-66
2021/10/30 00:21:06;;;;;;;28.23;16.23;;;24.90;36.80;;;;;;6146676;28;84693;-67
2021/10/30 00:24:06;;;;;;;25.42;15.90;;;24.90;37.00;;;;;;6146335;28;82998;-67
2021/10/30 00:27:10;;;;;;;30.15;16.70;;;24.90;36.80;;;;;;6144833;28;84817;-67
2021/10/30 00:30:10;;;;;;;26.50;15.65;;;24.90;36.70;;;;;;6132648;28;88974;-67
2021/10/30 00:33:11;;;;;;;24.20;14.75;;;24.90;36.60;;;;;;6150415;28;83289;-67
2021/10/30 00:36:11;;;;;;;25.17;15.90;;;24.90;36.70;;;;;;6138056;28;82963;-68
2021/10/30 00:39:12;;;;;;;25.88;15.32;;;24.90;36.70;;;;;;6143446;28;83358;-67
2021/10/30 00:42:12;;;;;;;27.23;15.63;;;24.90;36.80;;;;;;6152606;28;84324;-67
2021/10/30 00:45:13;;;;;;;27.35;15.38;;;24.90;36.70;;;;;;6141933;28;83421;-67
2021/10/30 00:48:14;;;;;;;23.90;14.45;;;24.90;36.80;;;;;;6148776;28;83377;-67
2021/10/30 00:51:14;;;;;;;22.58;13.85;;;24.80;36.50;;;;;;6149892;28;82844;-68
2021/10/30 00:54:15;;;;;;;25.92;14.98;;;24.80;36.90;;;;;;6138350;28;83236;-68
2021/10/30 00:57:15;;;;;;;26.75;15.90;;;24.80;36.70;;;;;;6135986;28;83219;-67
2021/10/30 01:00:16;;;;;;;26.08;15.15;;;24.80;36.60;;;;;;6142818;28;83050;-67
2021/10/30 01:03:16;;;;;;;24.77;14.10;;;24.80;36.80;;;;;;6140614;28;84248;-65
2021/10/30 01:06:17;;;;;;;26.55;16.25;;;24.80;36.70;;;;;;6144870;28;83393;-66
2021/10/30 01:09:17;;;;;;;29.30;17.98;;;24.80;36.70;;;;;;6145780;28;83313;-66
2021/10/30 01:12:18;;;;;;;28.70;17.10;;;24.80;36.90;;;;;;6143410;28;83154;-66
2021/10/30 01:15:18;;;;;;;30.98;16.67;;;24.70;36.80;;;;;;6149179;28;83497;-67
2021/10/30 01:18:19;;;;;;;27.83;16.80;;;24.80;36.90;;;;;;6152232;28;84372;-67
2021/10/30 01:21:20;;;;;;;28.00;16.83;;;24.70;36.60;;;;;;6148250;28;83103;-67
2021/10/30 01:24:21;;;;;;;27.88;16.65;;;24.70;36.80;;;;;;6149234;28;83209;-67
2021/10/30 01:27:21;;;;;;;29.35;16.63;;;24.70;36.80;;;;;;6137596;28;82944;-67
2021/10/30 01:30:22;;;;;;;29.70;15.82;;;24.70;36.90;;;;;;6153761;28;83441;-67
2021/10/30 01:33:23;;;;;;;27.65;15.60;;;24.70;37.40;;;;;;6155473;28;83141;-66
2021/10/30 01:36:23;;;;;;;29.25;17.27;;;24.70;37.20;;;;;;6153283;28;86180;-66
2021/10/30 01:39:24;;;;;;;29.60;14.98;;;24.70;36.80;;;;;;6148638;28;84555;-66
2021/10/30 01:42:25;;;;;;;30.52;16.63;;;24.70;36.70;;;;;;6151720;28;85585;-66
2021/10/30 01:45:25;;;;;;;27.25;16.73;;;24.70;36.70;;;;;;6149588;28;83319;-66
2021/10/30 01:48:26;;;;;;;30.30;16.90;;;24.70;36.60;;;;;;6149541;28;84039;-66
2021/10/30 01:51:27;;;;;;;23.05;14.43;;;24.70;36.50;;;;;;6142442;28;83334;-66
2021/10/30 01:54:27;;;;;;;30.80;16.73;;;24.70;36.50;;;;;;6151718;28;83352;-66
2021/10/30 01:57:29;;;;;;;25.98;15.32;;;24.70;36.50;;;;;;6153188;28;84841;-66
2021/10/30 02:00:29;;;;;;;22.90;14.40;;;24.70;36.70;;;;;;6138568;28;83224;-66
2021/10/30 02:03:31;;;;;;;23.27;14.35;;;24.70;36.80;;;;;;6146540;28;85788;-66
2021/10/30 02:06:31;;;;;;;25.20;15.23;;;24.70;36.80;;;;;;6141427;28;83171;-67
2021/10/30 02:09:32;;;;;;;26.70;14.07;;;24.70;36.30;;;;;;6156890;28;83248;-66
2021/10/30 02:12:33;;;;;;;24.95;15.02;;;24.70;36.80;;;;;;6149601;28;82804;-66
2021/10/30 02:15:33;;;;;;;21.80;14.68;;;24.70;36.20;;;;;;6144293;28;83215;-66
2021/10/30 02:18:34;;;;;;;25.90;14.13;;;24.70;36.30;;;;;;6140017;28;83185;-66
2021/10/30 02:21:34;;;;;;;23.60;14.38;;;24.70;36.20;;;;;;6152958;28;84023;-67
2021/10/30 02:24:35;;;;;;;28.73;14.63;;;24.70;36.10;;;;;;6151757;28;84837;-66
2021/10/30 02:27:35;;;;;;;25.88;15.80;;;24.70;36.40;;;;;;6145387;28;83570;-66
2021/10/30 02:30:36;;;;;;;29.50;15.43;;;24.70;36.10;;;;;;6149124;28;83689;-66
2021/10/30 02:33:36;;;;;;;26.20;14.73;;;24.70;37.30;;;;;;6143522;28;83988;-66
2021/10/30 02:36:38;;;;;;;23.83;14.73;;;24.70;36.50;;;;;;6143350;28;83358;-66
2021/10/30 02:39:39;;;;;;;24.02;14.93;;;24.70;35.10;;;;;;6137622;28;84004;-66
2021/10/30 02:42:39;;;;;;;21.63;12.98;;;24.70;34.80;;;;;;6140705;28;83033;-66
2021/10/30 02:45:40;;;;;;;19.60;13.57;;;24.80;34.90;;;;;;6146143;28;83566;-66
2021/10/30 02:48:40;;;;;;;21.33;13.63;;;24.80;35.00;;;;;;6140532;28;88573;-66
2021/10/30 02:51:41;;;;;;;21.17;12.68;;;24.80;34.90;;;;;;6149677;28;83654;-66
2021/10/30 02:54:41;;;;;;;19.05;12.02;;;24.90;35.10;;;;;;6138978;28;82941;-66
2021/10/30 02:57:42;;;;;;;24.33;12.90;;;24.90;34.90;;;;;;6150399;28;84749;-66
2021/10/30 03:00:42;;;;;;;19.83;11.57;;;24.90;34.60;;;;;;6145655;28;84106;-66
2021/10/30 03:03:43;;;;;;;20.90;11.85;;;24.90;34.70;;;;;;6145109;28;84800;-66
2021/10/30 03:06:44;;;;;;;23.88;12.35;;;24.90;34.70;;;;;;6149283;28;82808;-66
2021/10/30 03:09:49;;;;;;;18.15;11.55;;;25.00;34.50;;;;;;6142113;28;83216;-66
2021/10/30 03:12:49;;;;;;;22.17;11.97;;;24.90;34.70;;;;;;6146248;28;84075;-66
2021/10/30 03:15:50;;;;;;;21.17;12.57;;;24.90;34.60;;;;;;6142919;28;82817;-66
2021/10/30 03:18:50;;;;;;;19.77;13.18;;;25.00;34.70;;;;;;6144109;28;85507;-66
2021/10/30 03:21:51;;;;;;;18.60;11.70;;;25.00;34.60;;;;;;6144580;28;82895;-67
2021/10/30 03:24:52;;;;;;;21.45;13.68;;;25.00;34.60;;;;;;6140282;28;83449;-67
2021/10/30 03:27:52;;;;;;;20.17;13.07;;;25.00;34.40;;;;;;6148444;28;83080;-67
2021/10/30 03:30:53;;;;;;;21.35;13.13;;;25.00;34.50;;;;;;6140401;28;84482;-67
2021/10/30 03:33:53;;;;;;;25.98;14.38;;;25.00;34.50;;;;;;6145728;28;83676;-67
2021/10/30 03:36:54;;;;;;;24.80;15.65;;;25.00;34.30;;;;;;6147709;28;83500;-67
2021/10/30 03:39:54;;;;;;;24.50;16.75;;;25.00;34.60;;;;;;6148917;28;83808;-67
2021/10/30 03:42:55;;;;;;;28.88;17.90;;;24.90;34.70;;;;;;6149653;28;83062;-67
2021/10/30 03:45:55;;;;;;;26.42;15.18;;;25.00;34.30;;;;;;6149601;28;83399;-68
2021/10/30 03:48:56;;;;;;;24.60;15.73;;;25.00;34.60;;;;;;6148104;28;82997;-67
2021/10/30 03:51:58;;;;;;;23.45;14.80;;;24.90;34.60;;;;;;6139931;28;83562;-66
2021/10/30 03:54:59;;;;;;;22.50;14.38;;;25.00;34.20;;;;;;6145882;28;83245;-67
2021/10/30 03:57:59;;;;;;;23.42;13.45;;;25.00;34.60;;;;;;6149435;28;82895;-67
2021/10/30 04:01:00;;;;;;;20.75;12.63;;;25.00;34.30;;;;;;6136422;28;83185;-67
2021/10/30 04:04:00;;;;;;;17.15;11.00;;;24.90;34.70;;;;;;6148531;28;83191;-67
2021/10/30 04:07:01;;;;;;;18.88;11.05;;;25.00;35.20;;;;;;6146268;28;84488;-67
2021/10/30 04:10:01;;;;;;;19.85;10.90;;;25.00;35.10;;;;;;6143549;28;82981;-66
2021/10/30 04:13:02;;;;;;;16.58;10.95;;;25.00;35.00;;;;;;6149138;28;83138;-66
2021/10/30 04:16:02;;;;;;;15.98;10.52;;;24.90;34.20;;;;;;6151538;28;83942;-67
2021/10/30 04:19:03;;;;;;;17.20;11.02;;;24.90;34.10;;;;;;6160780;28;84335;-67
2021/10/30 04:22:03;;;;;;;16.55;10.90;;;24.90;34.40;;;;;;6152807;28;83668;-67
2021/10/30 04:25:04;;;;;;;17.45;9.77;;;24.90;34.10;;;;;;6157153;28;83327;-67
2021/10/30 04:28:04;;;;;;;20.48;11.40;;;24.90;35.40;;;;;;6160549;28;83410;-67
2021/10/30 04:31:08;;;;;;;19.88;10.88;;;24.90;35.50;;;;;;6153712;28;82769;-67
2021/10/30 04:34:18;;;;;;;18.45;12.00;;;24.90;35.50;;;;;;6140320;28;84190;-67
2021/10/30 04:37:18;;;;;;;22.90;14.45;;;24.90;35.10;;;;;;6142868;28;83230;-67
2021/10/30 04:40:19;;;;;;;22.65;14.20;;;24.80;34.50;;;;;;6137948;28;84469;-65
2021/10/30 04:43:19;;;;;;;22.85;13.13;;;24.80;35.00;;;;;;6145732;28;83780;-66
2021/10/30 04:46:20;;;;;;;20.35;12.63;;;24.90;36.50;;;;;;6149442;28;83086;-66
2021/10/30 04:49:20;;;;;;;25.77;14.05;;;24.90;36.30;;;;;;6140810;28;83035;-66
2021/10/30 04:52:21;;;;;;;19.98;13.40;;;24.90;35.60;;;;;;6141165;28;82883;-62
2021/10/30 04:55:21;;;;;;;551.97;188.05;;;24.60;35.20;;;;;;6142231;28;83873;-63
2021/10/30 04:58:22;;;;;;;196.98;63.05;;;24.50;36.20;;;;;;6146236;28;85536;-63
2021/10/30 05:01:22;;;;;;;129.82;45.13;;;24.50;36.40;;;;;;6138150;28;85430;-62
2021/10/30 05:04:24;;;;;;;105.82;36.30;;;24.40;36.20;;;;;;6141390;28;83841;-63
2021/10/30 05:07:24;;;;;;;573.88;192.40;;;24.40;36.40;;;;;;6145730;28;83370;-63
2021/10/30 05:10:25;;;;;;;374.50;117.80;;;24.40;36.60;;;;;;6144970;28;85176;-63
2021/10/30 05:13:26;;;;;;;281.85;88.80;;;24.40;36.60;;;;;;6142671;28;86509;-63
2021/10/30 05:16:26;;;;;;;203.43;66.75;;;24.40;36.60;;;;;;6140383;28;85591;-63
2021/10/30 05:19:27;;;;;;;144.45;52.17;;;24.40;36.50;;;;;;6138565;28;83296;-63
2021/10/30 05:22:27;;;;;;;119.82;42.78;;;24.40;36.70;;;;;;6148241;28;83337;-62
2021/10/30 05:25:28;;;;;;;98.20;33.67;;;24.40;36.50;;;;;;6148607;28;83938;-64
2021/10/30 05:28:28;;;;;;;79.20;26.77;;;24.40;37.50;;;;;;6152313;28;83359;-63
2021/10/30 05:31:29;;;;;;;60.55;22.85;;;24.40;37.60;;;;;;6139010;28;83144;-65
2021/10/30 05:34:30;;;;;;;46.55;18.88;;;24.50;37.70;;;;;;6143645;28;83005;-65
2021/10/30 05:37:49;;;;;;;44.15;16.45;;;24.50;38.10;;;;;;6145008;28;87429;-65
2021/10/30 05:40:49;;;;;;;30.25;13.98;;;24.50;38.30;;;;;;6145257;28;84272;-65
2021/10/30 05:43:50;;;;;;;31.02;14.07;;;24.50;38.40;;;;;;6137334;28;84158;-65
2021/10/30 05:46:51;;;;;;;29.88;13.57;;;24.50;38.50;;;;;;6149855;28;83062;-65
2021/10/30 05:49:52;;;;;;;25.30;12.18;;;24.50;38.40;;;;;;6147980;28;84874;-64
2021/10/30 05:52:53;;;;;;;27.50;11.07;;;24.50;38.50;;;;;;6146499;28;83191;-66
2021/10/30 05:55:53;;;;;;;24.33;11.70;;;24.50;38.40;;;;;;6153668;28;83385;-65
2021/10/30 05:58:54;;;;;;;19.80;9.82;;;24.50;38.40;;;;;;6140468;28;83463;-65
2021/10/30 06:01:54;;;;;;;20.02;10.00;;;24.50;38.20;;;;;;6149987;28;82851;-65
2021/10/30 06:04:55;;;;;;;17.40;9.68;;;24.50;38.20;;;;;;6144043;28;83375;-63
2021/10/30 06:07:56;;;;;;;20.13;9.18;;;24.50;38.00;;;;;;6152351;28;84173;-63
2021/10/30 06:10:57;;;;;;;16.90;7.95;;;24.60;38.10;;;;;;6141966;28;80383;-63
2021/10/30 06:13:57;;;;;;;14.40;8.23;;;24.70;37.80;;;;;;6149954;28;80363;-66
2021/10/30 06:17:00;;;;;;;13.13;8.05;;;24.60;37.70;;;;;;6142934;28;81520;-67
2021/10/30 06:20:01;;;;;;;13.15;7.00;;;24.70;37.50;;;;;;6146373;28;80426;-66
2021/10/30 06:23:02;;;;;;;12.57;7.13;;;24.70;37.40;;;;;;6150210;28;80840;-67
2021/10/30 06:26:03;;;;;;;11.93;7.10;;;24.80;37.30;;;;;;6143480;28;80731;-65
2021/10/30 06:29:03;;;;;;;12.50;6.15;;;24.80;37.20;;;;;;6147550;28;80689;-64
2021/10/30 06:32:04;;;;;;;11.75;6.70;;;24.80;37.30;;;;;;6149746;28;83547;-67
2021/10/30 06:35:06;;;;;;;9.55;6.30;;;24.90;37.20;;;;;;6153583;28;80655;-67
2021/10/30 06:38:06;;;;;;;12.88;6.88;;;24.90;37.10;;;;;;6139834;28;80523;-67
2021/10/30 06:41:08;;;;;;;14.07;6.72;;;24.90;37.00;;;;;;6150132;28;81079;-66
2021/10/30 06:44:09;;;;;;;19.00;6.53;;;24.90;37.00;;;;;;6144269;28;81015;-66
2021/10/30 06:47:09;;;;;;;10.80;6.00;;;25.00;37.10;;;;;;6145824;28;80672;-66
2021/10/30 06:50:20;;;;;;;8.40;5.75;;;25.00;37.10;;;;;;6146261;28;81506;-65
2021/10/30 06:53:20;;;;;;;9.52;5.38;;;25.10;37.10;;;;;;6151504;28;80337;-65
2021/10/30 06:56:21;;;;;;;7.93;4.85;;;25.10;37.00;;;;;;6151423;28;81605;-65
2021/10/30 06:59:22;;;;;;;12.57;5.88;;;25.10;36.90;;;;;;6150856;28;81789;-64
2021/10/30 07:02:22;;;;;;;6.75;4.97;;;25.20;36.90;;;;;;6145899;28;80874;-64
2021/10/30 07:05:23;;;;;;;8.70;5.25;;;25.20;36.80;;;;;;6140397;28;80436;-65
2021/10/30 07:08:23;;;;;;;7.72;5.15;;;25.30;36.80;;;;;;6141729;28;81334;-69
2021/10/30 07:11:24;;;;;;;8.18;5.38;;;25.30;36.80;;;;;;6153756;28;81845;-65
2021/10/30 07:14:24;;;;;;;8.27;5.00;;;25.40;37.20;;;;;;6142699;28;80426;-64
2021/10/30 07:17:25;;;;;;;19.33;8.43;;;25.40;37.50;;;;;;6142647;28;81478;-64
2021/10/30 07:20:25;;;;;;;21.17;11.50;;;25.50;36.70;;;;;;6147587;28;83163;-64
2021/10/30 07:23:26;;;;;;;22.35;14.13;;;25.50;35.80;;;;;;6147389;28;83057;-63
2021/10/30 07:26:26;;;;;;;26.25;13.68;;;25.50;35.00;;;;;;6144087;28;83235;-64
2021/10/30 07:29:27;;;;;;;28.10;15.23;;;25.50;35.10;;;;;;6132640;28;84285;-64
2021/10/30 07:32:27;;;;;;;25.70;15.02;;;25.40;34.80;;;;;;6147570;28;83257;-64
2021/10/30 07:35:29;;;;;;;36.85;16.80;;;25.40;35.80;;;;;;6135321;28;84158;-63
2021/10/30 07:38:30;;;;;;;29.48;15.85;;;25.40;34.90;;;;;;6144695;28;83989;-65
2021/10/30 07:41:30;;;;;;;24.30;14.27;;;25.30;35.40;;;;;;6144146;28;84498;-68
2021/10/30 07:44:31;;;;;;;19.95;12.75;;;25.30;35.30;;;;;;6148462;28;82979;-66
2021/10/30 07:47:31;;;;;;;27.65;15.18;;;25.20;35.00;;;;;;6144883;28;84452;-68
2021/10/30 07:50:32;;;;;;;27.10;13.38;;;25.20;35.00;;;;;;6148057;28;84852;-67
2021/10/30 07:53:32;;;;;;;18.58;11.35;;;25.20;34.50;;;;;;6133511;28;83171;-68
2021/10/30 07:56:33;;;;;;;23.13;12.38;;;25.10;34.40;;;;;;6136053;28;83139;-67
2021/10/30 07:59:33;;;;;;;19.95;12.02;;;25.10;34.20;;;;;;6142894;28;83531;-68
2021/10/30 08:02:34;;;;;;;19.25;12.50;;;25.10;34.00;;;;;;6146502;28;83756;-67
2021/10/30 08:05:34;;;;;;;19.25;11.65;;;25.10;33.70;;;;;;6145314;28;83009;-67
2021/10/30 08:08:35;;;;;;;19.17;11.65;;;24.90;33.70;;;;;;6148459;28;83233;-67
2021/10/30 08:11:35;;;;;;;20.80;11.48;;;24.90;34.00;;;;;;6140325;28;85643;-68
2021/10/30 08:14:36;;;;;;;18.63;10.73;;;24.90;33.60;;;;;;6148310;28;83900;-67
2021/10/30 08:17:36;;;;;;;19.42;12.38;;;24.90;33.60;;;;;;6137915;28;83042;-68
2021/10/30 08:20:37;;;;;;;23.27;11.65;;;24.90;33.70;;;;;;6145407;28;83332;-68
2021/10/30 08:23:37;;;;;;;17.52;11.02;;;24.80;33.90;;;;;;6145262;28;83179;-68
2021/10/30 08:26:38;;;;;;;16.85;10.82;;;24.90;33.80;;;;;;6144941;28;83799;-69
2021/10/30 08:29:38;;;;;;;19.50;11.18;;;24.90;33.60;;;;;;6147001;28;84050;-68
2021/10/30 08:32:39;;;;;;;19.70;11.43;;;25.00;33.60;;;;;;6142129;28;83409;-68
2021/10/30 08:35:39;;;;;;;16.85;9.45;;;25.00;33.70;;;;;;6142152;28;83197;-68
2021/10/30 08:38:40;;;;;;;17.38;10.10;;;25.10;33.70;;;;;;6147057;28;83460;-68
2021/10/30 08:41:41;;;;;;;19.30;10.43;;;25.10;33.80;;;;;;6137091;28;83248;-65
2021/10/30 08:44:41;;;;;;;13.77;8.75;;;25.20;33.90;;;;;;6133619;28;84085;-65
2021/10/30 08:47:42;;;;;;;14.07;9.75;;;25.20;33.90;;;;;;6141970;28;82959;-64
2021/10/30 08:50:42;;;;;;;13.13;8.68;;;25.30;33.60;;;;;;6139256;28;81391;-65
2021/10/30 08:53:43;;;;;;;15.15;8.98;;;25.30;33.80;;;;;;6135908;28;80593;-65
2021/10/30 08:56:43;;;;;;;14.82;8.80;;;25.50;35.40;;;;;;6140360;28;80390;-62
2021/10/30 08:59:44;;;;;;;12.00;7.82;;;25.60;36.10;;;;;;6144166;28;80619;-63
2021/10/30 09:02:44;;;;;;;11.57;7.15;;;25.70;36.30;;;;;;6148424;28;80736;-61
2021/10/30 09:05:45;;;;;;;10.30;7.32;;;25.80;36.30;;;;;;6140247;28;80588;-65
2021/10/30 09:08:46;;;;;;;14.80;7.75;;;25.90;35.90;;;;;;6150990;28;80526;-63
2021/10/30 09:11:46;;;;;;;11.95;7.30;;;25.90;35.50;;;;;;6149339;28;80641;-62
2021/10/30 09:14:47;;;;;;;14.27;8.45;;;26.00;35.60;;;;;;6140891;28;80980;-65
2021/10/30 09:17:47;;;;;;;9.85;6.80;;;26.00;35.40;;;;;;6140395;28;81008;-64
2021/10/30 09:20:48;;;;;;;10.57;6.43;;;26.10;35.60;;;;;;6149410;28;80416;-64
2021/10/30 09:23:49;;;;;;;10.40;6.78;;;26.10;35.50;;;;;;6153786;28;80145;-64
2021/10/30 09:26:49;;;;;;;11.85;7.72;;;26.20;35.40;;;;;;6145161;28;82035;-64
2021/10/30 09:29:50;;;;;;;13.52;8.30;;;26.20;35.20;;;;;;6144519;28;80453;-65
2021/10/30 09:32:50;;;;;;;11.32;6.95;;;26.30;35.50;;;;;;6143638;28;82708;-64
2021/10/30 09:35:51;;;;;;;10.10;6.65;;;26.30;35.40;;;;;;6148089;28;80258;-64
2021/10/30 09:38:51;;;;;;;9.45;6.57;;;26.40;35.40;;;;;;6143645;28;80831;-65
2021/10/30 09:41:52;;;;;;;11.55;7.90;;;26.50;35.60;;;;;;6140398;28;80512;-64
2021/10/30 09:44:52;;;;;;;13.60;8.30;;;26.50;35.60;;;;;;6150611;28;80839;-64
2021/10/30 09:47:56;;;;;;;14.48;9.18;;;26.50;35.80;;;;;;6152092;28;80672;-65
2021/10/30 09:50:58;;;;;;;16.85;9.65;;;26.60;35.90;;;;;;6148868;28;80561;-64
2021/10/30 09:53:58;;;;;;;28.45;11.80;;;26.60;35.90;;;;;;6146735;28;80607;-66
2021/10/30 09:56:59;;;;;;;20.95;11.77;;;26.70;36.00;;;;;;6147776;28;83293;-65
2021/10/30 09:59:59;;;;;;;24.20;12.50;;;26.80;36.00;;;;;;6141992;28;83090;-65
2021/10/30 10:03:00;;;;;;;26.00;13.77;;;26.90;36.40;;;;;;6149871;28;83394;-66
2021/10/30 10:06:01;;;;;;;31.15;15.00;;;27.00;36.70;;;;;;6141322;28;83915;-65
2021/10/30 10:09:03;;;;;;;31.67;16.35;;;27.00;36.70;;;;;;6149899;28;82983;-65
2021/10/30 10:12:04;;;;;;;41.35;17.50;;;27.10;36.50;;;;;;6143092;28;83340;-64
2021/10/30 10:15:04;;;;;;;32.95;17.08;;;27.10;36.90;;;;;;6136862;28;83859;-64
2021/10/30 10:18:05;;;;;;;32.83;17.02;;;27.20;37.20;;;;;;6136387;28;83010;-64
2021/10/30 10:21:05;;;;;;;35.22;17.73;;;27.30;37.80;;;;;;6135394;28;83767;-65
2021/10/30 10:24:06;;;;;;;32.05;16.52;;;27.40;37.30;;;;;;6141019;28;84017;-66
2021/10/30 10:27:07;;;;;;;52.92;22.50;;;27.40;37.40;;;;;;6140986;28;84009;-66
2021/10/30 10:30:07;;;;;;;181.02;62.75;;;27.40;36.40;;;;;;6142131;28;83357;-70
2021/10/30 10:33:08;;;;;;;231.27;74.82;;;27.50;36.20;;;;;;6148608;28;84123;-65
2021/10/30 10:36:08;;;;;;;256.77;85.85;;;27.50;37.00;;;;;;6150409;28;83434;-64
2021/10/30 10:39:09;;;;;;;384.38;133.80;;;27.50;36.70;;;;;;6149641;28;83065;-64
2021/10/30 10:42:09;;;;;;;402.83;129.55;;;27.50;36.10;;;;;;6136271;28;85490;-66
2021/10/30 10:45:10;;;;;;;673.15;246.60;;;27.60;35.90;;;;;;6134897;28;85377;-66
2021/10/30 10:48:11;;;;;;;500.63;169.15;;;27.60;36.20;;;;;;6138174;28;87431;-70
2021/10/30 10:51:11;;;;;;;361.95;117.70;;;27.60;35.20;;;;;;6134458;28;85892;-68
2021/10/30 10:54:12;;;;;;;265.58;89.53;;;27.60;33.70;;;;;;6135067;28;86296;-67
2021/10/30 10:57:12;;;;;;;351.27;112.85;;;27.60;33.50;;;;;;6139405;28;85206;-67
2021/10/30 11:00:13;;;;;;;316.92;106.70;;;27.60;34.70;;;;;;6135457;28;85366;-67
2021/10/30 11:03:13;;;;;;;258.15;86.80;;;27.60;35.10;;;;;;6144182;28;86116;-68
2021/10/30 11:06:14;;;;;;;201.50;68.63;;;27.50;34.80;;;;;;6147244;28;85513;-66
2021/10/30 11:09:14;;;;;;;152.55;51.13;;;27.50;34.40;;;;;;6143840;28;85338;-66
2021/10/30 11:12:15;;;;;;;86.63;29.90;;;27.50;33.30;;;;;;6148685;28;83357;-67
2021/10/30 11:15:15;;;;;;;55.78;22.45;;;27.50;31.80;;;;;;6142605;28;85520;-67
2021/10/30 11:18:19;;;;;;;49.88;19.27;;;27.50;31.00;;;;;;6146142;28;83147;-67
2021/10/30 11:21:31;;;;;;;37.60;14.50;;;27.60;30.90;;;;;;6140298;28;83249;-67
2021/10/30 11:24:32;;;;;;;23.30;11.38;;;27.60;30.70;;;;;;6139369;28;83425;-68
2021/10/30 11:27:32;;;;;;;14.80;8.63;;;27.50;30.40;;;;;;6147382;28;85712;-66
2021/10/30 11:30:33;;;;;;;14.95;7.47;;;27.50;29.60;;;;;;6155235;28;82954;-66
2021/10/30 11:33:33;;;;;;;14.73;7.32;;;27.40;29.80;;;;;;6151877;28;80979;-65
2021/10/30 11:36:37;;;;;;;9.98;7.07;;;27.50;29.70;;;;;;6142660;28;81700;-64
2021/10/30 11:39:37;;;;;;;9.25;6.65;;;27.50;29.50;;;;;;6145383;28;81068;-65
2021/10/30 11:42:38;;;;;;;15.65;7.75;;;27.60;29.50;;;;;;6149599;28;80484;-66
2021/10/30 11:45:38;;;;;;;9.75;6.57;;;27.60;29.80;;;;;;6152925;28;80858;-62
2021/10/30 11:48:39;;;;;;;13.15;7.55;;;27.70;29.80;;;;;;6141963;28;80178;-68
2021/10/30 11:51:41;;;;;;;13.32;7.18;;;27.80;29.90;;;;;;6142737;28;80562;-66
2021/10/30 11:54:41;;;;;;;11.70;7.53;;;27.80;29.90;;;;;;6139207;28;81967;-66
2021/10/30 11:57:42;;;;;;;14.07;7.38;;;27.90;30.70;;;;;;6151408;28;80327;-67
2021/10/30 12:00:48;;;;;;;9.68;6.50;;;27.90;30.20;;;;;;6139542;28;80489;-65
2021/10/30 12:03:48;;;;;;;8.93;5.38;;;27.90;29.90;;;;;;6144843;28;80785;-64
2021/10/30 12:06:49;;;;;;;8.35;5.78;;;28.00;29.80;;;;;;6137250;28;81725;-65
2021/10/30 12:09:49;;;;;;;9.48;6.45;;;28.00;29.60;;;;;;6148596;28;81511;-64
2021/10/30 12:12:50;;;;;;;9.25;5.88;;;28.00;30.00;;;;;;6147043;28;81480;-65
2021/10/30 12:15:51;;;;;;;11.63;6.15;;;28.00;29.80;;;;;;6142157;28;80447;-63
2021/10/30 12:18:53;;;;;;;9.93;6.18;;;28.00;29.80;;;;;;6151902;28;80410;-67
2021/10/30 12:21:54;;;;;;;11.38;5.30;;;28.00;29.50;;;;;;6155873;28;80231;-65
2021/10/30 12:24:54;;;;;;;9.90;5.90;;;28.10;29.50;;;;;;6150227;28;80300;-67
2021/10/30 12:27:56;;;;;;;11.65;5.95;;;28.10;29.50;;;;;;6147687;28;83779;-67
2021/10/30 12:30:57;;;;;;;14.00;5.72;;;28.00;29.60;;;;;;6137984;28;80480;-67
2021/10/30 12:33:58;;;;;;;10.80;5.65;;;28.00;28.80;;;;;;6145397;28;81335;-67
2021/10/30 12:36:59;;;;;;;9.20;6.13;;;27.80;29.10;;;;;;6136971;28;81316;-67
2021/10/30 12:39:59;;;;;;;12.52;6.28;;;27.80;28.90;;;;;;6144732;28;80828;-67
2021/10/30 12:43:00;;;;;;;9.82;6.05;;;27.90;29.10;;;;;;6141237;28;81611;-66
2021/10/30 12:46:00;;;;;;;11.45;6.70;;;27.80;29.40;;;;;;6142181;28;82197;-65
2021/10/30 12:49:01;;;;;;;8.90;5.85;;;27.80;29.30;;;;;;6134905;28;80533;-66
2021/10/30 12:52:01;;;;;;;7.95;5.60;;;27.70;29.30;;;;;;6143340;28;80667;-66
2021/10/30 12:55:02;;;;;;;13.50;7.25;;;27.80;28.90;;;;;;6157739;28;81878;-66
2021/10/30 12:58:03;;;;;;;15.15;7.03;;;27.80;29.20;;;;;;6147139;28;81001;-67
2021/10/30 13:01:03;;;;;;;17.50;7.00;;;28.00;29.50;;;;;;6142056;28;81518;-68
2021/10/30 13:04:04;;;;;;;10.27;6.03;;;28.00;29.70;;;;;;6148046;28;81102;-67
2021/10/30 13:07:04;;;;;;;7.82;5.10;;;28.10;29.60;;;;;;6145702;28;80573;-68
2021/10/30 13:10:07;;;;;;;7.75;5.50;;;28.30;30.00;;;;;;6150006;28;81770;-67
2021/10/30 13:13:07;;;;;;;9.23;5.43;;;28.40;29.20;;;;;;6148921;28;80545;-65
2021/10/30 13:16:08;;;;;;;7.22;5.22;;;28.50;29.50;;;;;;6154541;28;80528;-63
2021/10/30 13:19:08;;;;;;;8.30;5.50;;;28.60;29.50;;;;;;6145163;28;80753;-66
2021/10/30 13:22:09;;;;;;;9.75;5.80;;;28.90;29.50;;;;;;6148829;28;80450;-64
2021/10/30 13:25:09;;;;;;;8.77;5.28;;;29.30;29.70;;;;;;6148891;28;80649;-67
2021/10/30 13:28:10;;;;;;;8.15;6.05;;;29.90;29.20;;;;;;6152082;28;80259;-67
2021/10/30 13:31:10;;;;;;;7.75;5.93;;;30.60;28.80;;;;;;6152110;28;83278;-66
2021/10/30 13:34:11;;;;;;;7.72;5.07;;;31.30;28.50;;;;;;6156460;28;81997;-65
2021/10/30 13:37:11;;;;;;;7.72;5.97;;;31.60;28.10;;;;;;6157750;28;80347;-66
2021/10/30 13:40:12;;;;;;;8.13;5.65;;;31.80;27.80;;;;;;6155607;28;81421;-68
2021/10/30 13:43:12;;;;;;;10.27;6.32;;;32.00;28.00;;;;;;6157050;28;80520;-68
2021/10/30 13:46:13;;;;;;;11.18;5.63;;;32.00;28.00;;;;;;6152131;28;80632;-68
2021/10/30 13:49:14;;;;;;;8.75;5.97;;;32.00;27.90;;;;;;6155247;28;80611;-67
2021/10/30 13:52:14;;;;;;;7.88;5.65;;;31.80;28.00;;;;;;6150622;28;81410;-68
2021/10/30 13:55:15;;;;;;;7.18;5.47;;;31.40;28.70;;;;;;6153415;28;81427;-68
2021/10/30 13:58:15;;;;;;;7.38;5.43;;;30.80;29.00;;;;;;6152629;28;81032;-68
2021/10/30 14:01:17;;;;;;;9.50;5.95;;;30.30;29.30;;;;;;6155093;28;81505;-67
2021/10/30 14:04:18;;;;;;;7.32;4.90;;;30.00;29.60;;;;;;6154289;28;80612;-66
2021/10/30 14:07:19;;;;;;;8.68;5.68;;;29.70;29.30;;;;;;6152263;28;80292;-68
2021/10/30 14:10:19;;;;;;;8.48;5.82;;;29.40;29.60;;;;;;6151875;28;80227;-67
2021/10/30 14:13:20;;;;;;;9.10;5.90;;;29.20;30.20;;;;;;6152979;28;80862;-68
2021/10/30 14:16:20;;;;;;;9.45;6.07;;;29.10;30.20;;;;;;6152412;28;80523;-68
2021/10/30 14:19:21;;;;;;;69.97;28.90;;;28.90;30.10;;;;;;6155964;28;81108;-68
2021/10/30 14:22:21;;;;;;;287.88;122.47;;;28.80;30.20;;;;;;6153947;28;82875;-67
2021/10/30 14:25:22;;;;;;;195.07;77.95;;;28.70;30.20;;;;;;6140861;28;85797;-69
2021/10/30 14:28:23;;;;;;;207.70;84.75;;;28.60;30.40;;;;;;6143258;28;86761;-68
2021/10/30 14:31:23;;;;;;;416.35;155.10;;;28.40;30.30;;;;;;6146410;28;83244;-68
2021/10/30 14:34:24;;;;;;;218.70;85.93;;;28.40;30.20;;;;;;6149960;28;85460;-67
2021/10/30 14:37:24;;;;;;;217.52;87.55;;;28.20;30.30;;;;;;6146299;28;84029;-68
2021/10/30 14:40:25;;;;;;;159.68;61.97;;;28.10;31.00;;;;;;6146959;28;83442;-68
2021/10/30 14:43:25;;;;;;;160.95;59.58;;;28.10;30.80;;;;;;6150839;28;83155;-67
2021/10/30 14:46:28;;;;;;;113.03;43.60;;;27.90;31.00;;;;;;6149701;28;83984;-67
2021/10/30 14:49:28;;;;;;;92.80;35.80;;;27.90;30.60;;;;;;6149009;28;83507;-67
2021/10/30 14:52:29;;;;;;;79.00;31.02;;;27.80;30.80;;;;;;6151234;28;84033;-66
2021/10/30 14:55:29;;;;;;;67.90;29.25;;;27.70;30.90;;;;;;6149832;28;83785;-67
2021/10/30 14:58:30;;;;;;;64.50;25.25;;;27.60;31.00;;;;;;6149496;28;83135;-66
2021/10/30 15:01:30;;;;;;;62.30;24.70;;;27.50;31.10;;;;;;6150274;28;84043;-67
2021/10/30 15:04:31;;;;;;;57.67;24.55;;;27.40;31.00;;;;;;6153690;28;83280;-67
2021/10/30 15:07:31;;;;;;;44.08;20.95;;;27.30;31.10;;;;;;6148095;28;83752;-66
2021/10/30 15:10:32;;;;;;;35.83;18.25;;;27.20;31.00;;;;;;6150051;28;83400;-68
2021/10/30 15:13:32;;;;;;;44.53;18.02;;;27.10;30.80;;;;;;6149013;28;83655;-67
2021/10/30 15:16:33;;;;;;;36.08;16.52;;;27.10;31.00;;;;;;6146605;28;84113;-68
2021/10/30 15:19:33;;;;;;;27.67;12.93;;;27.00;30.90;;;;;;6148819;28;83407;-68